sensor_id;sensor_type;location;lat;lon;timestamp;pressure;altitude;pressure_sealevel;temperature;humidity
54314;BME280;50746;52.490;13.320;2023-03-04T00:01:22;101310.0;;;7.2;100.0
54314;BME280;50746;52.490;13.320;2023-03-04T00:02:22;101320.0;;;7.1;100.0
54314;BME280;50746;52.490;13.320;2023-03-04T00:03:23;101310.0;;;7.2;100.0
54314;BME280;50746;52.490;13.320;2023-03-04T00:04:22;101310.0;;;7.1;100.0
54314;BME280;50746;52.490;13.320;2023-03-04T00:05:22;101310.0;;;7.3;100.0
54314;BME280;50746;52.490;13.320;2023-03-04T00:06:22;101310.0;;;7.5;100.0
54314;BME280;50746;52.490;13.320;2023-03-04T00:07:22;101310.0;;;7.2;100.0
54314;BME280;50746;52.490;13.320;2023-03-04T00:10:22;101320.0;;;7.1;100.0
54314;BME280;50746;52.490;13.320;2023-03-04T00:12:22;101310.0;;;7.0;100.0
54314;BME280;50746;52.490;13.320;2023-03-04T00:13:22;101310.0;;;7.2;100.0
54314;BME280;50746;52.490;13.320;2023-03-04T00:14:22;101310.0;;;7.3;100.0
54314;BME280;50746;52.490;13.320;2023-03-04T00:16:23;101310.0;;;7.4;100.0
54314;BME280;50746;52.490;13.320;2023-03-04T00:17:22;101310.0;;;7.2;100.0
54314;BME280;50746;52.490;13.320;2023-03-04T00:18:22;101310.0;;;7.4;100.0
54314;BME280;50746;52.490;13.320;2023-03-04T00:20:22;101310.0;;;7.5;100.0
54314;BME280;50746;52.490;13.320;2023-03-04T00:23:22;101290.0;;;7.6;100.0
54314;BME280;50746;52.490;13.320;2023-03-04T00:24:22;101290.0;;;7.5;100.0
54314;BME280;50746;52.490;13.320;2023-03-04T00:25:22;101290.0;;;7.4;100.0
54314;BME280;50746;52.490;13.320;2023-03-04T00:26:22;101290.0;;;7.2;100.0
54314;BME280;50746;52.490;13.320;2023-03-04T00:27:22;101300.0;;;7.3;100.0
54314;BME280;50746;52.490;13.320;2023-03-04T00:28:22;101290.0;;;7.5;100.0
54314;BME280;50746;52.490;13.320;2023-03-04T00:29:22;101290.0;;;7.7;100.0
54314;BME280;50746;52.490;13.320;2023-03-04T00:30:22;101290.0;;;7.8;100.0
54314;BME280;50746;52.490;13.320;2023-03-04T00:31:22;101280.0;;;7.9;100.0
54314;BME280;50746;52.490;13.320;2023-03-04T00:32:22;101290.0;;;7.7;100.0
54314;BME280;50746;52.490;13.320;2023-03-04T00:34:22;101290.0;;;7.5;100.0
54314;BME280;50746;52.490;13.320;2023-03-04T00:36:22;101290.0;;;7.6;100.0
54314;BME280;50746;52.490;13.320;2023-03-04T00:37:23;101290.0;;;7.7;100.0
54314;BME280;50746;52.490;13.320;2023-03-04T00:38:22;101290.0;;;8.0;100.0
54314;BME280;50746;52.490;13.320;2023-03-04T00:39:22;101300.0;;;7.7;100.0
54314;BME280;50746;52.490;13.320;2023-03-04T00:40:22;101290.0;;;7.9;100.0
54314;BME280;50746;52.490;13.320;2023-03-04T00:41:22;101300.0;;;7.8;100.0
54314;BME280;50746;52.490;13.320;2023-03-04T00:42:22;101290.0;;;7.7;100.0
54314;BME280;50746;52.490;13.320;2023-03-04T00:46:22;101290.0;;;7.9;100.0
54314;BME280;50746;52.490;13.320;2023-03-04T00:48:22;101280.0;;;7.8;100.0
54314;BME280;50746;52.490;13.320;2023-03-04T00:49:22;101280.0;;;7.9;100.0
54314;BME280;50746;52.490;13.320;2023-03-04T00:50:22;101280.0;;;7.6;100.0
54314;BME280;50746;52.490;13.320;2023-03-04T00:51:22;101280.0;;;7.3;100.0
54314;BME280;50746;52.490;13.320;2023-03-04T00:52:22;101280.0;;;7.4;100.0
54314;BME280;50746;52.490;13.320;2023-03-04T00:54:22;101280.0;;;7.7;100.0
54314;BME280;50746;52.490;13.320;2023-03-04T00:55:22;101270.0;;;7.8;100.0
54314;BME280;50746;52.490;13.320;2023-03-04T00:57:22;101270.0;;;7.5;100.0
54314;BME280;50746;52.490;13.320;2023-03-04T00:58:22;101280.0;;;7.9;100.0
54314;BME280;50746;52.490;13.320;2023-03-04T00:59:22;101270.0;;;7.5;100.0
54314;BME280;50746;52.490;13.320;2023-03-04T01:00:22;101280.0;;;7.0;100.0
54314;BME280;50746;52.490;13.320;2023-03-04T01:01:22;101280.0;;;7.4;100.0
54314;BME280;50746;52.490;13.320;2023-03-04T01:02:22;101270.0;;;7.6;100.0
54314;BME280;50746;52.490;13.320;2023-03-04T01:03:22;101280.0;;;7.9;100.0
54314;BME280;50746;52.490;13.320;2023-03-04T01:04:22;101280.0;;;7.7;100.0
54314;BME280;50746;52.490;13.320;2023-03-04T01:05:22;101270.0;;;7.6;100.0
54314;BME280;50746;52.490;13.320;2023-03-04T01:06:22;101270.0;;;7.7;100.0
54314;BME280;50746;52.490;13.320;2023-03-04T01:07:22;101270.0;;;7.9;100.0
54314;BME280;50746;52.490;13.320;2023-03-04T01:09:22;101270.0;;;7.8;100.0
54314;BME280;50746;52.490;13.320;2023-03-04T01:10:22;101260.0;;;7.7;100.0
54314;BME280;50746;52.490;13.320;2023-03-04T01:11:22;101270.0;;;7.8;100.0
54314;BME280;50746;52.490;13.320;2023-03-04T01:12:22;101270.0;;;7.9;100.0
54314;BME280;50746;52.490;13.320;2023-03-04T01:13:22;101260.0;;;8.2;100.0
54314;BME280;50746;52.490;13.320;2023-03-04T01:14:22;101260.0;;;8.1;100.0
54314;BME280;50746;52.490;13.320;2023-03-04T01:15:23;101260.0;;;7.9;100.0
54314;BME280;50746;52.490;13.320;2023-03-04T01:16:22;101260.0;;;7.8;100.0
54314;BME280;50746;52.490;13.320;2023-03-04T01:17:23;101260.0;;;8.0;100.0
54314;BME280;50746;52.490;13.320;2023-03-04T01:18:22;101270.0;;;7.6;100.0
54314;BME280;50746;52.490;13.320;2023-03-04T01:21:22;101260.0;;;7.4;100.0
54314;BME280;50746;52.490;13.320;2023-03-04T01:22:22;101260.0;;;7.6;100.0
54314;BME280;50746;52.490;13.320;2023-03-04T01:23:22;101260.0;;;7.4;100.0
54314;BME280;50746;52.490;13.320;2023-03-04T01:24:22;101260.0;;;7.5;100.0
54314;BME280;50746;52.490;13.320;2023-03-04T01:25:22;101260.0;;;7.7;100.0
54314;BME280;50746;52.490;13.320;2023-03-04T01:26:22;101260.0;;;8.0;100.0
54314;BME280;50746;52.490;13.320;2023-03-04T01:27:22;101250.0;;;7.5;100.0
54314;BME280;50746;52.490;13.320;2023-03-04T01:28:22;101250.0;;;7.8;100.0
54314;BME280;50746;52.490;13.320;2023-03-04T01:31:22;101240.0;;;8.0;100.0
54314;BME280;50746;52.490;13.320;2023-03-04T01:32:22;101240.0;;;7.9;100.0
54314;BME280;50746;52.490;13.320;2023-03-04T01:33:22;101230.0;;;7.8;100.0
54314;BME280;50746;52.490;13.320;2023-03-04T01:34:22;101240.0;;;7.9;100.0
54314;BME280;50746;52.490;13.320;2023-03-04T01:35:22;101240.0;;;7.7;100.0
54314;BME280;50746;52.490;13.320;2023-03-04T01:36:22;101250.0;;;7.9;100.0
54314;BME280;50746;52.490;13.320;2023-03-04T01:38:22;101240.0;;;8.1;100.0
54314;BME280;50746;52.490;13.320;2023-03-04T01:39:22;101250.0;;;7.6;100.0
54314;BME280;50746;52.490;13.320;2023-03-04T01:42:25;101240.0;;;7.7;100.0
54314;BME280;50746;52.490;13.320;2023-03-04T01:43:24;101230.0;;;7.8;100.0
54314;BME280;50746;52.490;13.320;2023-03-04T01:44:22;101230.0;;;7.9;100.0
54314;BME280;50746;52.490;13.320;2023-03-04T01:45:22;101240.0;;;7.7;100.0
54314;BME280;50746;52.490;13.320;2023-03-04T01:47:25;101220.0;;;7.8;100.0
54314;BME280;50746;52.490;13.320;2023-03-04T01:49:22;101220.0;;;8.1;100.0
54314;BME280;50746;52.490;13.320;2023-03-04T01:51:22;101220.0;;;8.3;100.0
54314;BME280;50746;52.490;13.320;2023-03-04T01:53:25;101230.0;;;7.7;100.0
54314;BME280;50746;52.490;13.320;2023-03-04T01:54:22;101220.0;;;8.0;100.0
54314;BME280;50746;52.490;13.320;2023-03-04T01:56:24;101210.0;;;8.4;100.0
54314;BME280;50746;52.490;13.320;2023-03-04T01:57:24;101220.0;;;8.2;100.0
54314;BME280;50746;52.490;13.320;2023-03-04T01:58:23;101210.0;;;8.3;100.0
54314;BME280;50746;52.490;13.320;2023-03-04T01:59:24;101210.0;;;8.1;100.0
54314;BME280;50746;52.490;13.320;2023-03-04T02:00:26;101200.0;;;8.5;100.0
54314;BME280;50746;52.490;13.320;2023-03-04T02:01:22;101210.0;;;8.6;100.0
54314;BME280;50746;52.490;13.320;2023-03-04T02:02:22;101210.0;;;8.4;100.0
54314;BME280;50746;52.490;13.320;2023-03-04T02:03:08;101210.0;;;8.4;100.0
54314;BME280;50746;52.490;13.320;2023-03-04T02:03:10;101210.0;;;8.4;100.0
54314;BME280;50746;52.490;13.320;2023-03-04T02:03:23;101200.0;;;8.3;100.0
54314;BME280;50746;52.490;13.320;2023-03-04T02:04:24;101210.0;;;8.6;100.0
54314;BME280;50746;52.490;13.320;2023-03-04T02:06:22;101210.0;;;8.4;100.0
54314;BME280;50746;52.490;13.320;2023-03-04T02:07:22;101210.0;;;8.6;100.0
54314;BME280;50746;52.490;13.320;2023-03-04T02:08:23;101220.0;;;8.5;100.0
54314;BME280;50746;52.490;13.320;2023-03-04T02:09:22;101210.0;;;8.4;100.0
54314;BME280;50746;52.490;13.320;2023-03-04T02:10:23;101200.0;;;8.3;100.0
54314;BME280;50746;52.490;13.320;2023-03-04T02:11:22;101200.0;;;8.5;100.0
54314;BME280;50746;52.490;13.320;2023-03-04T02:14:23;101210.0;;;7.8;100.0
54314;BME280;50746;52.490;13.320;2023-03-04T02:15:23;101200.0;;;8.2;100.0
54314;BME280;50746;52.490;13.320;2023-03-04T02:16:22;101210.0;;;8.3;100.0
54314;BME280;50746;52.490;13.320;2023-03-04T02:17:23;101220.0;;;8.1;100.0
54314;BME280;50746;52.490;13.320;2023-03-04T02:18:23;101200.0;;;8.4;100.0
54314;BME280;50746;52.490;13.320;2023-03-04T02:19:30;101200.0;;;8.1;100.0
54314;BME280;50746;52.490;13.320;2023-03-04T02:20:30;101190.0;;;8.4;100.0
54314;BME280;50746;52.490;13.320;2023-03-04T02:21:25;101200.0;;;8.8;100.0
54314;BME280;50746;52.490;13.320;2023-03-04T02:22:22;101190.0;;;8.5;100.0
54314;BME280;50746;52.490;13.320;2023-03-04T02:23:25;101190.0;;;8.6;100.0
54314;BME280;50746;52.490;13.320;2023-03-04T02:24:26;101200.0;;;8.4;100.0
54314;BME280;50746;52.490;13.320;2023-03-04T02:25:26;101200.0;;;8.5;100.0
54314;BME280;50746;52.490;13.320;2023-03-04T02:26:24;101190.0;;;8.1;100.0
54314;BME280;50746;52.490;13.320;2023-03-04T02:27:22;101190.0;;;8.2;100.0
54314;BME280;50746;52.490;13.320;2023-03-04T02:29:22;101190.0;;;8.6;100.0
54314;BME280;50746;52.490;13.320;2023-03-04T02:30:23;101180.0;;;8.9;100.0
54314;BME280;50746;52.490;13.320;2023-03-04T02:31:24;101190.0;;;8.7;100.0
54314;BME280;50746;52.490;13.320;2023-03-04T02:32:22;101190.0;;;8.5;100.0
54314;BME280;50746;52.490;13.320;2023-03-04T02:33:22;101180.0;;;8.3;100.0
54314;BME280;50746;52.490;13.320;2023-03-04T02:34:26;101180.0;;;8.1;100.0
54314;BME280;50746;52.490;13.320;2023-03-04T02:35:22;101170.0;;;8.3;100.0
54314;BME280;50746;52.490;13.320;2023-03-04T02:36:23;101170.0;;;8.7;100.0
54314;BME280;50746;52.490;13.320;2023-03-04T02:38:22;101170.0;;;8.9;100.0
54314;BME280;50746;52.490;13.320;2023-03-04T02:39:28;101160.0;;;8.7;100.0
54314;BME280;50746;52.490;13.320;2023-03-04T02:40:25;101160.0;;;8.8;100.0
54314;BME280;50746;52.490;13.320;2023-03-04T02:41:25;101160.0;;;8.7;100.0
54314;BME280;50746;52.490;13.320;2023-03-04T02:42:22;101160.0;;;8.8;100.0
54314;BME280;50746;52.490;13.320;2023-03-04T02:44:24;101160.0;;;9.1;100.0
54314;BME280;50746;52.490;13.320;2023-03-04T02:46:22;101160.0;;;8.8;100.0
54314;BME280;50746;52.490;13.320;2023-03-04T02:47:22;101160.0;;;8.5;100.0
54314;BME280;50746;52.490;13.320;2023-03-04T02:48:22;101150.0;;;8.6;100.0
54314;BME280;50746;52.490;13.320;2023-03-04T02:49:24;101150.0;;;8.7;100.0
54314;BME280;50746;52.490;13.320;2023-03-04T02:52:24;101150.0;;;8.6;100.0
54314;BME280;50746;52.490;13.320;2023-03-04T02:53:22;101140.0;;;8.5;100.0
54314;BME280;50746;52.490;13.320;2023-03-04T02:54:23;101140.0;;;8.7;100.0
54314;BME280;50746;52.490;13.320;2023-03-04T02:55:22;101140.0;;;8.9;100.0
54314;BME280;50746;52.490;13.320;2023-03-04T02:56:22;101150.0;;;8.8;100.0
54314;BME280;50746;52.490;13.320;2023-03-04T02:57:22;101150.0;;;8.9;100.0
54314;BME280;50746;52.490;13.320;2023-03-04T02:58:22;101150.0;;;8.7;100.0
54314;BME280;50746;52.490;13.320;2023-03-04T02:59:23;101150.0;;;9.1;100.0
54314;BME280;50746;52.490;13.320;2023-03-04T03:00:22;101150.0;;;9.2;100.0
54314;BME280;50746;52.490;13.320;2023-03-04T03:01:26;101140.0;;;8.9;100.0
54314;BME280;50746;52.490;13.320;2023-03-04T03:02:22;101150.0;;;9.0;100.0
54314;BME280;50746;52.490;13.320;2023-03-04T03:03:22;101150.0;;;9.1;100.0
54314;BME280;50746;52.490;13.320;2023-03-04T03:04:23;101140.0;;;8.9;100.0
54314;BME280;50746;52.490;13.320;2023-03-04T03:05:24;101150.0;;;8.7;100.0
54314;BME280;50746;52.490;13.320;2023-03-04T03:06:22;101150.0;;;8.9;100.0
54314;BME280;50746;52.490;13.320;2023-03-04T03:07:22;101150.0;;;8.8;100.0
54314;BME280;50746;52.490;13.320;2023-03-04T03:08:22;101150.0;;;9.2;100.0
54314;BME280;50746;52.490;13.320;2023-03-04T03:10:22;101150.0;;;8.9;100.0
54314;BME280;50746;52.490;13.320;2023-03-04T03:11:22;101150.0;;;9.0;100.0
54314;BME280;50746;52.490;13.320;2023-03-04T03:12:22;101140.0;;;9.3;100.0
54314;BME280;50746;52.490;13.320;2023-03-04T03:13:22;101150.0;;;8.9;100.0
54314;BME280;50746;52.490;13.320;2023-03-04T03:14:22;101150.0;;;9.3;100.0
54314;BME280;50746;52.490;13.320;2023-03-04T03:15:22;101150.0;;;9.1;100.0
54314;BME280;50746;52.490;13.320;2023-03-04T03:17:22;101150.0;;;9.4;100.0
54314;BME280;50746;52.490;13.320;2023-03-04T03:18:22;101150.0;;;9.1;100.0
54314;BME280;50746;52.490;13.320;2023-03-04T03:21:22;101140.0;;;9.0;100.0
54314;BME280;50746;52.490;13.320;2023-03-04T03:22:22;101150.0;;;9.1;100.0
54314;BME280;50746;52.490;13.320;2023-03-04T03:23:22;101150.0;;;9.3;100.0
54314;BME280;50746;52.490;13.320;2023-03-04T03:24:22;101140.0;;;9.0;100.0
54314;BME280;50746;52.490;13.320;2023-03-04T03:25:22;101140.0;;;9.2;100.0
54314;BME280;50746;52.490;13.320;2023-03-04T03:26:22;101140.0;;;9.1;100.0
54314;BME280;50746;52.490;13.320;2023-03-04T03:27:22;101140.0;;;9.2;100.0
54314;BME280;50746;52.490;13.320;2023-03-04T03:28:22;101140.0;;;9.3;100.0
54314;BME280;50746;52.490;13.320;2023-03-04T03:29:22;101140.0;;;9.1;100.0
54314;BME280;50746;52.490;13.320;2023-03-04T03:36:22;101140.0;;;8.8;100.0
54314;BME280;50746;52.490;13.320;2023-03-04T03:38:22;101130.0;;;8.9;100.0
54314;BME280;50746;52.490;13.320;2023-03-04T03:39:22;101130.0;;;9.1;100.0
54314;BME280;50746;52.490;13.320;2023-03-04T03:40:22;101130.0;;;9.2;100.0
54314;BME280;50746;52.490;13.320;2023-03-04T03:42:22;101130.0;;;9.4;100.0
54314;BME280;50746;52.490;13.320;2023-03-04T03:43:22;101130.0;;;9.2;100.0
54314;BME280;50746;52.490;13.320;2023-03-04T03:44:22;101120.0;;;9.6;100.0
54314;BME280;50746;52.490;13.320;2023-03-04T03:45:22;101130.0;;;9.7;100.0
54314;BME280;50746;52.490;13.320;2023-03-04T03:46:22;101130.0;;;9.3;100.0
54314;BME280;50746;52.490;13.320;2023-03-04T03:47:22;101120.0;;;9.0;100.0
54314;BME280;50746;52.490;13.320;2023-03-04T03:48:22;101120.0;;;9.2;100.0
54314;BME280;50746;52.490;13.320;2023-03-04T03:49:22;101120.0;;;9.1;100.0
54314;BME280;50746;52.490;13.320;2023-03-04T03:50:22;101110.0;;;9.3;100.0
54314;BME280;50746;52.490;13.320;2023-03-04T03:51:22;101110.0;;;9.2;100.0
54314;BME280;50746;52.490;13.320;2023-03-04T03:52:22;101120.0;;;8.9;100.0
54314;BME280;50746;52.490;13.320;2023-03-04T03:53:22;101110.0;;;9.2;100.0
54314;BME280;50746;52.490;13.320;2023-03-04T03:54:22;101110.0;;;8.9;100.0
54314;BME280;50746;52.490;13.320;2023-03-04T03:55:22;101110.0;;;9.2;100.0
54314;BME280;50746;52.490;13.320;2023-03-04T03:56:22;101110.0;;;9.0;100.0
54314;BME280;50746;52.490;13.320;2023-03-04T03:57:22;101110.0;;;8.9;100.0
54314;BME280;50746;52.490;13.320;2023-03-04T03:58:22;101110.0;;;9.2;100.0
54314;BME280;50746;52.490;13.320;2023-03-04T03:59:22;101110.0;;;9.5;100.0
54314;BME280;50746;52.490;13.320;2023-03-04T04:00:23;101110.0;;;9.2;100.0
54314;BME280;50746;52.490;13.320;2023-03-04T04:02:22;101110.0;;;9.0;100.0
54314;BME280;50746;52.490;13.320;2023-03-04T04:03:22;101110.0;;;9.1;100.0
54314;BME280;50746;52.490;13.320;2023-03-04T04:04:23;101100.0;;;9.0;100.0
54314;BME280;50746;52.490;13.320;2023-03-04T04:05:22;101100.0;;;9.3;100.0
54314;BME280;50746;52.490;13.320;2023-03-04T04:07:22;101100.0;;;9.5;100.0
54314;BME280;50746;52.490;13.320;2023-03-04T04:08:22;101100.0;;;9.4;100.0
54314;BME280;50746;52.490;13.320;2023-03-04T04:09:22;101090.0;;;9.3;100.0
54314;BME280;50746;52.490;13.320;2023-03-04T04:10:22;101090.0;;;9.5;100.0
54314;BME280;50746;52.490;13.320;2023-03-04T04:11:22;101100.0;;;9.4;100.0
54314;BME280;50746;52.490;13.320;2023-03-04T04:12:22;101100.0;;;9.6;100.0
54314;BME280;50746;52.490;13.320;2023-03-04T04:15:22;101100.0;;;9.5;100.0
54314;BME280;50746;52.490;13.320;2023-03-04T04:16:22;101100.0;;;9.6;100.0
54314;BME280;50746;52.490;13.320;2023-03-04T04:19:22;101110.0;;;9.2;100.0
54314;BME280;50746;52.490;13.320;2023-03-04T04:20:22;101100.0;;;9.1;100.0
54314;BME280;50746;52.490;13.320;2023-03-04T04:22:22;101100.0;;;9.2;100.0
54314;BME280;50746;52.490;13.320;2023-03-04T04:25:22;101100.0;;;9.4;100.0
54314;BME280;50746;52.490;13.320;2023-03-04T04:26:22;101100.0;;;9.3;100.0
54314;BME280;50746;52.490;13.320;2023-03-04T04:27:22;101100.0;;;9.4;100.0
54314;BME280;50746;52.490;13.320;2023-03-04T04:28:23;101100.0;;;9.5;100.0
54314;BME280;50746;52.490;13.320;2023-03-04T04:29:22;101100.0;;;9.4;100.0
54314;BME280;50746;52.490;13.320;2023-03-04T04:30:22;101100.0;;;9.7;100.0
54314;BME280;50746;52.490;13.320;2023-03-04T04:33:22;101100.0;;;9.3;100.0
54314;BME280;50746;52.490;13.320;2023-03-04T04:34:22;101100.0;;;9.4;100.0
54314;BME280;50746;52.490;13.320;2023-03-04T04:35:22;101090.0;;;9.2;100.0
54314;BME280;50746;52.490;13.320;2023-03-04T04:36:22;101100.0;;;9.0;100.0
54314;BME280;50746;52.490;13.320;2023-03-04T04:37:22;101090.0;;;8.7;100.0
54314;BME280;50746;52.490;13.320;2023-03-04T04:38:22;101090.0;;;8.9;100.0
54314;BME280;50746;52.490;13.320;2023-03-04T04:39:22;101080.0;;;9.0;100.0
54314;BME280;50746;52.490;13.320;2023-03-04T04:40:22;101090.0;;;9.3;100.0
54314;BME280;50746;52.490;13.320;2023-03-04T04:41:25;101090.0;;;9.2;100.0
54314;BME280;50746;52.490;13.320;2023-03-04T04:42:22;101090.0;;;9.1;100.0
54314;BME280;50746;52.490;13.320;2023-03-04T04:45:22;101090.0;;;9.3;100.0
54314;BME280;50746;52.490;13.320;2023-03-04T04:46:22;101080.0;;;9.4;100.0
54314;BME280;50746;52.490;13.320;2023-03-04T04:47:22;101080.0;;;9.7;100.0
54314;BME280;50746;52.490;13.320;2023-03-04T04:48:22;101080.0;;;9.8;100.0
54314;BME280;50746;52.490;13.320;2023-03-04T04:49:22;101080.0;;;9.5;100.0
54314;BME280;50746;52.490;13.320;2023-03-04T04:51:22;101080.0;;;9.8;100.0
54314;BME280;50746;52.490;13.320;2023-03-04T04:52:22;101090.0;;;9.4;100.0
54314;BME280;50746;52.490;13.320;2023-03-04T04:54:22;101080.0;;;9.1;100.0
54314;BME280;50746;52.490;13.320;2023-03-04T04:55:22;101080.0;;;9.2;100.0
54314;BME280;50746;52.490;13.320;2023-03-04T04:56:24;101080.0;;;9.4;100.0
54314;BME280;50746;52.490;13.320;2023-03-04T04:59:23;101080.0;;;9.6;100.0
54314;BME280;50746;52.490;13.320;2023-03-04T05:00:22;101080.0;;;9.4;100.0
54314;BME280;50746;52.490;13.320;2023-03-04T05:01:23;101070.0;;;9.5;100.0
54314;BME280;50746;52.490;13.320;2023-03-04T05:02:22;101070.0;;;9.6;100.0
54314;BME280;50746;52.490;13.320;2023-03-04T05:04:23;101070.0;;;9.5;100.0
54314;BME280;50746;52.490;13.320;2023-03-04T05:07:22;101070.0;;;9.7;100.0
54314;BME280;50746;52.490;13.320;2023-03-04T05:08:22;101070.0;;;9.8;100.0
54314;BME280;50746;52.490;13.320;2023-03-04T05:10:22;101070.0;;;9.9;100.0
54314;BME280;50746;52.490;13.320;2023-03-04T05:11:22;101070.0;;;10.2;100.0
54314;BME280;50746;52.490;13.320;2023-03-04T05:12:22;101070.0;;;10.1;100.0
54314;BME280;50746;52.490;13.320;2023-03-04T05:13:23;101070.0;;;10.0;100.0
54314;BME280;50746;52.490;13.320;2023-03-04T05:14:22;101070.0;;;10.2;100.0
54314;BME280;50746;52.490;13.320;2023-03-04T05:15:22;101070.0;;;9.9;100.0
54314;BME280;50746;52.490;13.320;2023-03-04T05:16:22;101070.0;;;10.1;100.0
54314;BME280;50746;52.490;13.320;2023-03-04T05:17:22;101070.0;;;9.4;100.0
54314;BME280;50746;52.490;13.320;2023-03-04T05:19:22;101080.0;;;9.2;100.0
54314;BME280;50746;52.490;13.320;2023-03-04T05:20:22;101070.0;;;9.4;100.0
54314;BME280;50746;52.490;13.320;2023-03-04T05:21:22;101080.0;;;9.3;100.0
54314;BME280;50746;52.490;13.320;2023-03-04T05:22:22;101080.0;;;9.2;100.0
54314;BME280;50746;52.490;13.320;2023-03-04T05:23:23;101070.0;;;9.4;100.0
54314;BME280;50746;52.490;13.320;2023-03-04T05:24:22;101070.0;;;9.5;100.0
54314;BME280;50746;52.490;13.320;2023-03-04T05:25:22;101070.0;;;9.6;100.0
54314;BME280;50746;52.490;13.320;2023-03-04T05:26:22;101060.0;;;9.7;100.0
54314;BME280;50746;52.490;13.320;2023-03-04T05:27:22;101070.0;;;9.6;100.0
54314;BME280;50746;52.490;13.320;2023-03-04T05:30:22;101070.0;;;9.4;100.0
54314;BME280;50746;52.490;13.320;2023-03-04T05:31:22;101060.0;;;9.6;100.0
54314;BME280;50746;52.490;13.320;2023-03-04T05:32:22;101070.0;;;9.9;100.0
54314;BME280;50746;52.490;13.320;2023-03-04T05:33:22;101070.0;;;9.8;100.0
54314;BME280;50746;52.490;13.320;2023-03-04T05:34:22;101070.0;;;9.7;100.0
54314;BME280;50746;52.490;13.320;2023-03-04T05:38:23;101060.0;;;9.6;100.0
54314;BME280;50746;52.490;13.320;2023-03-04T05:40:22;101060.0;;;9.5;100.0
54314;BME280;50746;52.490;13.320;2023-03-04T05:41:22;101060.0;;;9.6;100.0
54314;BME280;50746;52.490;13.320;2023-03-04T05:42:22;101070.0;;;9.5;100.0
54314;BME280;50746;52.490;13.320;2023-03-04T05:43:22;101070.0;;;9.4;100.0
54314;BME280;50746;52.490;13.320;2023-03-04T05:44:22;101060.0;;;9.5;100.0
54314;BME280;50746;52.490;13.320;2023-03-04T05:45:23;101060.0;;;9.7;100.0
54314;BME280;50746;52.490;13.320;2023-03-04T05:47:22;101070.0;;;9.6;100.0
54314;BME280;50746;52.490;13.320;2023-03-04T05:48:22;101060.0;;;9.5;100.0
54314;BME280;50746;52.490;13.320;2023-03-04T05:50:22;101060.0;;;9.7;100.0
54314;BME280;50746;52.490;13.320;2023-03-04T05:51:22;101060.0;;;9.5;100.0
54314;BME280;50746;52.490;13.320;2023-03-04T05:52:22;101060.0;;;9.6;100.0
54314;BME280;50746;52.490;13.320;2023-03-04T05:54:22;101060.0;;;9.8;100.0
54314;BME280;50746;52.490;13.320;2023-03-04T05:55:23;101050.0;;;10.0;100.0
54314;BME280;50746;52.490;13.320;2023-03-04T05:56:22;101060.0;;;9.6;100.0
54314;BME280;50746;52.490;13.320;2023-03-04T05:58:22;101060.0;;;9.7;100.0
54314;BME280;50746;52.490;13.320;2023-03-04T05:59:22;101060.0;;;9.9;100.0
54314;BME280;50746;52.490;13.320;2023-03-04T06:01:22;101060.0;;;9.6;100.0
54314;BME280;50746;52.490;13.320;2023-03-04T06:02:22;101050.0;;;9.5;100.0
54314;BME280;50746;52.490;13.320;2023-03-04T06:03:22;101060.0;;;9.4;100.0
54314;BME280;50746;52.490;13.320;2023-03-04T06:04:22;101060.0;;;9.5;100.0
54314;BME280;50746;52.490;13.320;2023-03-04T06:05:22;101060.0;;;9.8;100.0
54314;BME280;50746;52.490;13.320;2023-03-04T06:07:22;101060.0;;;9.6;100.0
54314;BME280;50746;52.490;13.320;2023-03-04T06:08:22;101060.0;;;10.1;100.0
54314;BME280;50746;52.490;13.320;2023-03-04T06:09:22;101060.0;;;9.8;100.0
54314;BME280;50746;52.490;13.320;2023-03-04T06:10:22;101070.0;;;9.5;100.0
54314;BME280;50746;52.490;13.320;2023-03-04T06:11:22;101060.0;;;9.8;100.0
54314;BME280;50746;52.490;13.320;2023-03-04T06:13:22;101060.0;;;9.6;100.0
54314;BME280;50746;52.490;13.320;2023-03-04T06:14:22;101060.0;;;9.5;100.0
54314;BME280;50746;52.490;13.320;2023-03-04T06:15:22;101060.0;;;9.6;100.0
54314;BME280;50746;52.490;13.320;2023-03-04T06:16:22;101060.0;;;9.7;100.0
54314;BME280;50746;52.490;13.320;2023-03-04T06:18:23;101060.0;;;9.8;100.0
54314;BME280;50746;52.490;13.320;2023-03-04T06:19:22;101060.0;;;9.6;100.0
54314;BME280;50746;52.490;13.320;2023-03-04T06:20:22;101060.0;;;9.9;100.0
54314;BME280;50746;52.490;13.320;2023-03-04T06:22:22;101060.0;;;9.6;100.0
54314;BME280;50746;52.490;13.320;2023-03-04T06:23:22;101060.0;;;9.8;100.0
54314;BME280;50746;52.490;13.320;2023-03-04T06:24:22;101060.0;;;10.0;100.0
54314;BME280;50746;52.490;13.320;2023-03-04T06:26:22;101070.0;;;10.1;100.0
54314;BME280;50746;52.490;13.320;2023-03-04T06:27:22;101060.0;;;9.8;100.0
54314;BME280;50746;52.490;13.320;2023-03-04T06:29:22;101060.0;;;10.0;100.0
54314;BME280;50746;52.490;13.320;2023-03-04T06:30:22;101060.0;;;9.9;100.0
54314;BME280;50746;52.490;13.320;2023-03-04T06:32:22;101070.0;;;9.8;100.0
54314;BME280;50746;52.490;13.320;2023-03-04T06:33:22;101070.0;;;10.0;100.0
54314;BME280;50746;52.490;13.320;2023-03-04T06:35:22;101070.0;;;10.3;100.0
54314;BME280;50746;52.490;13.320;2023-03-04T06:36:22;101070.0;;;9.6;100.0
54314;BME280;50746;52.490;13.320;2023-03-04T06:37:22;101060.0;;;9.5;100.0
54314;BME280;50746;52.490;13.320;2023-03-04T06:38:23;101060.0;;;9.6;100.0
54314;BME280;50746;52.490;13.320;2023-03-04T06:39:22;101070.0;;;9.7;100.0
54314;BME280;50746;52.490;13.320;2023-03-04T06:40:22;101070.0;;;9.8;100.0
54314;BME280;50746;52.490;13.320;2023-03-04T06:41:22;101070.0;;;9.9;100.0
54314;BME280;50746;52.490;13.320;2023-03-04T06:44:22;101070.0;;;9.6;100.0
54314;BME280;50746;52.490;13.320;2023-03-04T06:45:22;101070.0;;;9.9;100.0
54314;BME280;50746;52.490;13.320;2023-03-04T06:47:22;101070.0;;;10.2;100.0
54314;BME280;50746;52.490;13.320;2023-03-04T06:49:22;101080.0;;;10.4;100.0
54314;BME280;50746;52.490;13.320;2023-03-04T06:50:22;101070.0;;;10.2;100.0
54314;BME280;50746;52.490;13.320;2023-03-04T06:51:22;101070.0;;;10.4;100.0
54314;BME280;50746;52.490;13.320;2023-03-04T06:53:22;101070.0;;;10.2;100.0
54314;BME280;50746;52.490;13.320;2023-03-04T06:54:22;101070.0;;;9.8;100.0
54314;BME280;50746;52.490;13.320;2023-03-04T06:55:22;101070.0;;;10.1;100.0